Time,TemperatureF,DewpointF,PressureIn,WindDirection,WindDirectionDegrees,WindSpeedMPH,WindSpeedGustMPH,Humidity,HourlyPrecipIn,Conditions,Clouds,dailyrainin,SoftwareType,DateUTC
2013-01-25 00:02:00,21.0,7.0,30.23,SE,144,3.0,7.0,53,0.00,,,0.00,,2013-01-25 06:02:00,
2013-01-25 00:11:00,21.0,7.0,30.23,SE,144,3.0,7.0,53,0.00,,,0.00,,2013-01-25 06:11:00,
2013-01-25 00:21:00,21.0,7.0,30.22,South,181,4.0,7.0,53,0.00,,,0.00,,2013-01-25 06:21:00,
2013-01-25 00:32:00,21.0,7.0,30.20,SSE,151,4.0,9.0,53,0.00,,,0.00,,2013-01-25 06:32:00,
2013-01-25 00:42:00,21.0,7.0,30.20,SSE,151,2.0,11.0,53,0.00,,,0.00,,2013-01-25 06:42:00,
2013-01-25 00:52:00,21.0,7.0,30.20,SSE,151,2.0,11.0,53,0.00,,,0.00,,2013-01-25 06:52:00,
2013-01-25 01:02:00,22.0,8.0,30.19,SSW,205,2.0,11.0,53,0.00,,,0.00,,2013-01-25 07:02:00,
2013-01-25 01:11:00,22.0,8.0,30.19,South,173,3.0,7.0,53,0.00,,,0.00,,2013-01-25 07:11:00,
2013-01-25 01:21:00,22.0,8.0,30.19,South,173,3.0,7.0,53,0.00,,,0.00,,2013-01-25 07:21:00,
2013-01-25 01:32:00,22.0,8.0,30.19,SSW,202,3.0,7.0,54,0.00,,,0.00,,2013-01-25 07:32:00,
2013-01-25 01:42:00,22.0,8.0,30.19,SSW,202,3.0,7.0,54,0.00,,,0.00,,2013-01-25 07:42:00,
2013-01-25 01:51:00,22.0,8.0,30.18,SW,235,4.0,7.0,54,0.00,,,0.00,,2013-01-25 07:51:00,
2013-01-25 02:01:00,22.0,8.0,30.18,South,185,2.0,6.0,54,0.00,,,0.00,,2013-01-25 08:01:00,
2013-01-25 02:11:00,22.0,8.0,30.17,SW,218,2.0,6.0,55,0.00,,,0.00,,2013-01-25 08:11:00,
2013-01-25 02:21:00,22.0,8.0,30.17,SW,218,2.0,6.0,55,0.00,,,0.00,,2013-01-25 08:21:00,
2013-01-25 02:32:00,22.0,8.0,30.16,SW,221,3.0,7.0,55,0.00,,,0.00,,2013-01-25 08:32:00,
2013-01-25 02:41:00,22.0,8.0,30.16,SW,221,3.0,7.0,55,0.00,,,0.00,,2013-01-25 08:41:00,
2013-01-25 02:52:00,22.0,9.0,30.15,SSW,202,5.0,9.0,57,0.00,,,0.00,,2013-01-25 08:52:00,
2013-01-25 03:01:00,22.0,9.0,30.14,SSW,207,5.0,11.0,57,0.00,,,0.00,,2013-01-25 09:01:00,
2013-01-25 03:11:00,21.0,9.0,30.14,WSW,241,4.0,10.0,60,0.00,,,0.00,,2013-01-25 09:11:00,
2013-01-25 03:21:00,21.0,9.0,30.14,WSW,241,4.0,10.0,60,0.00,,,0.00,,2013-01-25 09:21:00,
2013-01-25 03:31:00,21.0,10.0,30.14,SW,231,2.0,10.0,63,0.00,,,0.00,,2013-01-25 09:31:00,
2013-01-25 03:42:00,21.0,10.0,30.14,SW,231,2.0,10.0,63,0.00,,,0.00,,2013-01-25 09:42:00,
2013-01-25 03:52:00,21.0,11.0,30.15,WSW,253,2.0,6.0,64,0.00,,,0.00,,2013-01-25 09:52:00,
2013-01-25 04:01:00,21.0,11.0,30.15,SW,236,2.0,6.0,64,0.00,,,0.00,,2013-01-25 10:01:00,
2013-01-25 04:12:00,21.0,11.0,30.15,SW,236,2.0,6.0,64,0.00,,,0.00,,2013-01-25 10:12:00,
2013-01-25 04:21:00,21.0,11.0,30.15,SW,236,2.0,6.0,64,0.00,,,0.00,,2013-01-25 10:21:00,
2013-01-25 04:32:00,21.0,11.0,30.14,West,259,2.0,6.0,65,0.00,,,0.00,,2013-01-25 10:32:00,
2013-01-25 04:42:00,21.0,11.0,30.14,West,259,2.0,6.0,65,0.00,,,0.00,,2013-01-25 10:42:00,
2013-01-25 04:52:00,21.0,11.0,30.14,WSW,253,1.0,5.0,66,0.00,,,0.00,,2013-01-25 10:52:00,
2013-01-25 05:02:00,21.0,12.0,30.13,WSW,238,2.0,5.0,67,0.00,,,0.00,,2013-01-25 11:02:00,
2013-01-25 05:11:00,21.0,12.0,30.13,WSW,238,2.0,5.0,67,0.00,,,0.00,,2013-01-25 11:11:00,
2013-01-25 05:22:00,21.0,12.0,30.12,WSW,254,4.0,6.0,67,0.00,,,0.00,,2013-01-25 11:22:00,
2013-01-25 05:32:00,21.0,12.0,30.11,West,265,3.0,9.0,67,0.00,,,0.00,,2013-01-25 11:32:00,
2013-01-25 05:42:00,21.0,12.0,30.11,West,265,3.0,9.0,67,0.00,,,0.00,,2013-01-25 11:42:00,
2013-01-25 05:52:00,21.0,12.0,30.10,WSW,252,2.0,7.0,68,0.00,,,0.00,,2013-01-25 11:52:00,
2013-01-25 06:02:00,21.0,12.0,30.10,WSW,241,3.0,7.0,69,0.00,,,0.00,,2013-01-25 12:02:00,
2013-01-25 06:11:00,21.0,12.0,30.10,WSW,241,3.0,7.0,69,0.00,,,0.00,,2013-01-25 12:11:00,
2013-01-25 06:22:00,20.0,12.0,30.11,West,263,2.0,4.0,70,0.00,,,0.00,,2013-01-25 12:22:00,
2013-01-25 06:32:00,20.0,12.0,30.11,WNW,285,2.0,4.0,71,0.00,,,0.00,,2013-01-25 12:32:00,
2013-01-25 06:42:00,20.0,12.0,30.11,WNW,285,2.0,4.0,71,0.00,,,0.00,,2013-01-25 12:42:00,
2013-01-25 06:53:00,19.0,12.0,30.12,North,0,0.0,1.0,73,0.00,,,0.00,,2013-01-25 12:53:00,
2013-01-25 07:02:00,19.0,11.0,30.11,North,0,0.0,2.0,72,0.00,,,0.00,,2013-01-25 13:02:00,
2013-01-25 07:11:00,19.0,11.0,30.11,North,0,0.0,2.0,72,0.00,,,0.00,,2013-01-25 13:11:00,
2013-01-25 07:22:00,18.0,11.0,30.12,North,0,0.0,2.0,75,0.00,,,0.00,,2013-01-25 13:22:00,
2013-01-25 07:32:00,18.0,12.0,30.12,North,0,0.0,3.0,76,0.00,,,0.00,,2013-01-25 13:32:00,
2013-01-25 07:42:00,18.0,12.0,30.12,North,0,0.0,3.0,76,0.00,,,0.00,,2013-01-25 13:42:00,
2013-01-25 07:52:00,17.0,11.0,30.12,WSW,237,1.0,4.0,76,0.00,,,0.00,,2013-01-25 13:52:00,
2013-01-25 08:03:00,18.0,12.0,30.11,SW,233,3.0,6.0,77,0.00,,,0.00,,2013-01-25 14:03:00,
2013-01-25 08:12:00,18.0,12.0,30.11,SW,233,3.0,6.0,77,0.00,,,0.00,,2013-01-25 14:12:00,
2013-01-25 08:22:00,18.0,12.0,30.11,SW,230,3.0,6.0,77,0.00,,,0.00,,2013-01-25 14:22:00,
2013-01-25 08:32:00,19.0,12.0,30.10,SW,222,2.0,6.0,75,0.00,,,0.00,,2013-01-25 14:32:00,
2013-01-25 08:42:00,19.0,12.0,30.10,SW,222,2.0,6.0,75,0.00,,,0.00,,2013-01-25 14:42:00,
2013-01-25 08:53:00,19.0,12.0,30.10,WSW,239,3.0,9.0,74,0.00,,,0.00,,2013-01-25 14:53:00,
2013-01-25 09:02:00,20.0,12.0,30.10,SW,219,4.0,11.0,72,0.00,,,0.00,,2013-01-25 15:02:00,
2013-01-25 09:12:00,20.0,12.0,30.10,SW,219,4.0,11.0,72,0.00,,,0.00,,2013-01-25 15:12:00,
2013-01-25 09:22:00,20.0,12.0,30.09,SW,225,6.0,11.0,71,0.00,,,0.00,,2013-01-25 15:22:00,
2013-01-25 09:32:00,22.0,12.0,30.09,WSW,252,7.0,15.0,64,0.00,,,0.00,,2013-01-25 15:32:00,
2013-01-25 09:42:00,22.0,12.0,30.09,WSW,252,7.0,15.0,64,0.00,,,0.00,,2013-01-25 15:42:00,
2013-01-25 09:52:00,22.0,12.0,30.09,WSW,252,7.0,15.0,64,0.00,,,0.00,,2013-01-25 15:52:00,
2013-01-25 10:03:00,22.0,12.0,30.10,West,261,9.0,18.0,64,0.00,,,0.00,,2013-01-25 16:03:00,
2013-01-25 10:12:00,22.0,12.0,30.10,West,261,9.0,18.0,64,0.00,,,0.00,,2013-01-25 16:12:00,
2013-01-25 10:22:00,25.0,13.0,30.10,WNW,282,8.0,16.0,59,0.00,,,0.00,,2013-01-25 16:22:00,
2013-01-25 10:32:00,26.0,12.0,30.11,West,261,9.0,16.0,56,0.00,,,0.00,,2013-01-25 16:32:00,
2013-01-25 10:42:00,26.0,12.0,30.11,West,261,9.0,16.0,56,0.00,,,0.00,,2013-01-25 16:42:00,
2013-01-25 10:52:00,27.0,13.0,30.10,WSW,253,8.0,13.0,55,0.00,,,0.00,,2013-01-25 16:52:00,
2013-01-25 11:02:00,26.0,12.0,30.11,West,261,9.0,16.0,56,0.00,,,0.00,,2013-01-25 17:02:00,
2013-01-25 11:12:00,26.0,12.0,30.11,West,261,9.0,16.0,56,0.00,,,0.00,,2013-01-25 17:12:00,
2013-01-25 11:22:00,29.0,14.0,30.10,WNW,287,7.0,15.0,53,0.00,,,0.00,,2013-01-25 17:22:00,
2013-01-25 11:32:00,30.0,15.0,30.09,WNW,292,7.0,13.0,52,0.00,,,0.00,,2013-01-25 17:32:00,
2013-01-25 11:42:00,30.0,15.0,30.09,WNW,292,7.0,13.0,52,0.00,,,0.00,,2013-01-25 17:42:00,
2013-01-25 11:53:00,31.0,15.0,30.09,WNW,300,8.0,16.0,51,0.00,,,0.00,,2013-01-25 17:53:00,
2013-01-25 12:02:00,30.0,15.0,30.10,WNW,294,8.0,13.0,52,0.00,,,0.00,,2013-01-25 18:02:00,
2013-01-25 12:11:00,30.0,15.0,30.10,WNW,294,8.0,13.0,52,0.00,,,0.00,,2013-01-25 18:11:00,
2013-01-25 12:23:00,32.0,16.0,30.09,WNW,295,8.0,15.0,52,0.00,,,0.00,,2013-01-25 18:23:00,
2013-01-25 12:32:00,33.0,17.0,30.09,WNW,294,9.0,16.0,52,0.00,,,0.00,,2013-01-25 18:32:00,
2013-01-25 12:42:00,33.0,17.0,30.09,WNW,294,9.0,16.0,52,0.00,,,0.00,,2013-01-25 18:42:00,
2013-01-25 12:52:00,34.0,18.0,30.09,WNW,284,9.0,16.0,52,0.00,,,0.00,,2013-01-25 18:52:00,
2013-01-25 13:02:00,32.0,16.0,30.09,WNW,292,9.0,15.0,51,0.00,,,0.00,,2013-01-25 19:02:00,
2013-01-25 13:12:00,32.0,16.0,30.09,WNW,292,9.0,15.0,51,0.00,,,0.00,,2013-01-25 19:12:00,
2013-01-25 13:22:00,35.0,19.0,30.09,WNW,299,9.0,18.0,51,0.00,,,0.00,,2013-01-25 19:22:00,
2013-01-25 13:32:00,35.0,19.0,30.09,WNW,291,12.0,21.0,51,0.00,,,0.00,,2013-01-25 19:32:00,
2013-01-25 13:42:00,35.0,19.0,30.09,WNW,291,12.0,21.0,51,0.00,,,0.00,,2013-01-25 19:42:00,
2013-01-25 13:53:00,35.0,19.0,30.08,WNW,293,11.0,19.0,52,0.00,,,0.00,,2013-01-25 19:53:00,
2013-01-25 14:02:00,35.0,20.0,30.09,WNW,298,11.0,20.0,54,0.00,,,0.00,,2013-01-25 20:02:00,
2013-01-25 14:12:00,35.0,20.0,30.09,WNW,298,11.0,20.0,54,0.00,,,0.00,,2013-01-25 20:12:00,
2013-01-25 14:22:00,35.0,19.0,30.09,WNW,298,10.0,19.0,52,0.00,,,0.00,,2013-01-25 20:22:00,
2013-01-25 14:32:00,36.0,22.0,30.08,WNW,289,11.0,19.0,56,0.00,,,0.00,,2013-01-25 20:32:00,
2013-01-25 14:42:00,36.0,22.0,30.08,WNW,289,11.0,19.0,56,0.00,,,0.00,,2013-01-25 20:42:00,
2013-01-25 14:52:00,36.0,22.0,30.08,WNW,291,9.0,20.0,57,0.00,,,0.00,,2013-01-25 20:52:00,
2013-01-25 15:02:00,36.0,22.0,30.08,WNW,289,11.0,19.0,56,0.00,,,0.00,,2013-01-25 21:02:00,
2013-01-25 15:11:00,36.0,22.0,30.08,WNW,289,11.0,19.0,56,0.00,,,0.00,,2013-01-25 21:11:00,
2013-01-25 15:22:00,37.0,23.0,30.09,WNW,298,9.0,20.0,56,0.00,,,0.00,,2013-01-25 21:22:00,
2013-01-25 15:32:00,37.0,23.0,30.09,WNW,296,9.0,22.0,56,0.00,,,0.00,,2013-01-25 21:32:00,
2013-01-25 15:42:00,37.0,23.0,30.09,WNW,296,9.0,22.0,56,0.00,,,0.00,,2013-01-25 21:42:00,
2013-01-25 15:52:00,37.0,23.0,30.09,WNW,293,9.0,17.0,56,0.00,,,0.00,,2013-01-25 21:52:00,
2013-01-25 16:02:00,38.0,23.0,30.09,WNW,302,9.0,18.0,55,0.00,,,0.00,,2013-01-25 22:02:00,
2013-01-25 16:12:00,38.0,23.0,30.09,WNW,302,9.0,18.0,55,0.00,,,0.00,,2013-01-25 22:12:00,
2013-01-25 16:22:00,38.0,23.0,30.09,WNW,298,12.0,18.0,55,0.00,,,0.00,,2013-01-25 22:22:00,
2013-01-25 16:32:00,37.0,23.0,30.09,WNW,302,11.0,16.0,56,0.00,,,0.00,,2013-01-25 22:32:00,
2013-01-25 16:42:00,37.0,23.0,30.09,WNW,302,11.0,16.0,56,0.00,,,0.00,,2013-01-25 22:42:00,
2013-01-25 16:52:00,37.0,23.0,30.10,WNW,302,9.0,15.0,57,0.00,,,0.00,,2013-01-25 22:52:00,
2013-01-25 17:02:00,36.0,23.0,30.10,WNW,302,9.0,14.0,58,0.00,,,0.00,,2013-01-25 23:02:00,
2013-01-25 17:11:00,36.0,23.0,30.10,WNW,302,9.0,14.0,58,0.00,,,0.00,,2013-01-25 23:11:00,
2013-01-25 17:22:00,35.0,23.0,30.11,WNW,297,7.0,13.0,60,0.00,,,0.00,,2013-01-25 23:22:00,
2013-01-25 17:32:00,34.0,22.0,30.11,WNW,300,7.0,12.0,61,0.00,,,0.00,,2013-01-25 23:32:00,
2013-01-25 17:42:00,34.0,22.0,30.11,WNW,300,7.0,12.0,61,0.00,,,0.00,,2013-01-25 23:42:00,
2013-01-25 17:53:00,34.0,22.0,30.11,NW,310,3.0,11.0,62,0.00,,,0.00,,2013-01-25 23:53:00,
2013-01-25 18:02:00,32.0,22.0,30.12,WNW,300,5.0,9.0,65,0.00,,,0.00,,2013-01-26 00:02:00,
2013-01-25 18:11:00,32.0,22.0,30.12,WNW,300,5.0,9.0,65,0.00,,,0.00,,2013-01-26 00:11:00,
2013-01-25 18:22:00,32.0,22.0,30.12,WNW,299,6.0,10.0,66,0.00,,,0.00,,2013-01-26 00:22:00,
2013-01-25 18:32:00,32.0,22.0,30.13,WNW,297,6.0,14.0,66,0.00,,,0.00,,2013-01-26 00:32:00,
2013-01-25 18:42:00,32.0,22.0,30.13,WNW,297,6.0,14.0,66,0.00,,,0.00,,2013-01-26 00:42:00,
2013-01-25 18:53:00,32.0,22.0,30.13,WNW,297,6.0,14.0,66,0.00,,,0.00,,2013-01-26 00:53:00,
2013-01-25 19:01:00,30.0,21.0,30.14,WNW,301,4.0,7.0,70,0.00,,,0.00,,2013-01-26 01:01:00,
2013-01-25 19:11:00,30.0,21.0,30.14,WNW,301,4.0,7.0,70,0.00,,,0.00,,2013-01-26 01:11:00,
2013-01-25 19:22:00,29.0,21.0,30.14,NW,306,4.0,9.0,71,0.00,,,0.00,,2013-01-26 01:22:00,
2013-01-25 19:32:00,29.0,21.0,30.15,WNW,302,3.0,7.0,72,0.00,,,0.00,,2013-01-26 01:32:00,
2013-01-25 19:42:00,29.0,21.0,30.15,WNW,302,3.0,7.0,72,0.00,,,0.00,,2013-01-26 01:42:00,
2013-01-25 19:52:00,26.0,17.0,30.16,North,352,6.0,14.0,67,0.00,,,0.00,,2013-01-26 01:52:00,
2013-01-25 20:01:00,24.0,14.0,30.17,North,350,6.0,11.0,65,0.00,,,0.00,,2013-01-26 02:01:00,
2013-01-25 20:11:00,24.0,14.0,30.17,North,350,6.0,11.0,65,0.00,,,0.00,,2013-01-26 02:11:00,
2013-01-25 20:22:00,23.0,13.0,30.18,NNW,345,6.0,15.0,64,0.00,,,0.00,,2013-01-26 02:22:00,
2013-01-25 20:32:00,22.0,12.0,30.19,North,353,5.0,9.0,64,0.00,,,0.00,,2013-01-26 02:32:00,
2013-01-25 20:42:00,22.0,12.0,30.19,North,353,5.0,9.0,64,0.00,,,0.00,,2013-01-26 02:42:00,
2013-01-25 20:52:00,21.0,10.0,30.20,North,11,5.0,15.0,61,0.00,,,0.00,,2013-01-26 02:52:00,
2013-01-25 21:02:00,21.0,10.0,30.21,North,351,5.0,15.0,61,0.00,,,0.00,,2013-01-26 03:02:00,
2013-01-25 21:11:00,21.0,10.0,30.21,North,351,5.0,15.0,61,0.00,,,0.00,,2013-01-26 03:11:00,
2013-01-25 21:21:00,20.0,8.0,30.22,NNW,340,4.0,12.0,60,0.00,,,0.00,,2013-01-26 03:21:00,
2013-01-25 21:31:00,19.0,6.0,30.24,NNW,344,8.0,13.0,57,0.00,,,0.00,,2013-01-26 03:31:00,
2013-01-25 21:42:00,19.0,6.0,30.24,NNW,344,8.0,13.0,57,0.00,,,0.00,,2013-01-26 03:42:00,
2013-01-25 21:51:00,18.0,5.0,30.24,NNW,344,5.0,14.0,57,0.00,,,0.00,,2013-01-26 03:51:00,
2013-01-25 22:02:00,18.0,5.0,30.25,North,351,5.0,11.0,57,0.00,,,0.00,,2013-01-26 04:02:00,
2013-01-25 22:12:00,18.0,5.0,30.25,North,351,5.0,11.0,57,0.00,,,0.00,,2013-01-26 04:12:00,
2013-01-25 22:21:00,17.0,4.0,30.26,North,5,6.0,13.0,57,0.00,,,0.00,,2013-01-26 04:21:00,
2013-01-25 22:32:00,16.0,3.0,30.27,North,356,5.0,13.0,57,0.00,,,0.00,,2013-01-26 04:32:00,
2013-01-25 22:42:00,16.0,3.0,30.27,North,356,5.0,13.0,57,0.00,,,0.00,,2013-01-26 04:42:00,
2013-01-25 22:52:00,15.0,3.0,30.28,North,349,5.0,11.0,58,0.00,,,0.00,,2013-01-26 04:52:00,
2013-01-25 23:03:00,15.0,4.0,30.27,NNW,346,2.0,7.0,62,0.00,,,0.00,,2013-01-26 05:03:00,
2013-01-25 23:12:00,15.0,4.0,30.27,NNW,346,2.0,7.0,62,0.00,,,0.00,,2013-01-26 05:12:00,
2013-01-25 23:23:00,15.0,3.0,30.28,North,358,3.0,9.0,59,0.00,,,0.00,,2013-01-26 05:23:00,
2013-01-25 23:33:00,14.0,3.0,30.29,NNW,346,2.0,11.0,62,0.00,,,0.00,,2013-01-26 05:33:00,
2013-01-25 23:41:00,14.0,3.0,30.29,NNW,346,2.0,11.0,62,0.00,,,0.00,,2013-01-26 05:41:00,
2013-01-25 23:52:00,13.0,3.0,30.29,NNW,346,1.0,5.0,63,0.00,,,0.00,,2013-01-26 05:52:00,